createdAt,value
2022-09-12T00:00:00.101Z,73.88
2022-09-12T00:02:02.981Z,73.79
2022-09-12T00:04:06.029Z,73.81
2022-09-12T00:06:11.802Z,73.84
2022-09-12T00:08:15.556Z,73.84
2022-09-12T00:10:19.746Z,73.79
2022-09-12T00:12:22.568Z,73.97
2022-09-12T00:14:25.506Z,73.84
2022-09-12T00:16:30.180Z,73.81
2022-09-12T00:18:33.872Z,73.81
2022-09-12T00:20:36.686Z,73.81
2022-09-12T00:22:39.875Z,73.41
2022-09-12T00:24:42.633Z,73.53
2022-09-12T00:26:46.805Z,73.33
2022-09-12T00:28:50.668Z,73.49
2022-09-12T00:30:53.430Z,73.19
2022-09-12T00:32:56.187Z,73.28
2022-09-12T00:34:58.942Z,73.42
2022-09-12T00:37:01.701Z,73.58
2022-09-12T00:39:05.126Z,73.60
2022-09-12T00:41:08.360Z,73.52
2022-09-12T00:43:14.784Z,73.48
2022-09-12T00:45:25.032Z,73.54
2022-09-12T00:47:30.302Z,73.69
2022-09-12T00:49:37.222Z,73.63
2022-09-12T00:51:43.610Z,73.60
2022-09-12T00:53:49.965Z,73.60
2022-09-12T00:55:55.118Z,73.44
2022-09-12T00:58:03.367Z,73.57
2022-09-12T01:00:14.313Z,73.60
2022-09-12T01:02:18.192Z,73.85
2022-09-12T01:04:23.824Z,73.73
2022-09-12T01:06:29.636Z,74.11
2022-09-12T01:08:37.252Z,74.26
2022-09-12T01:10:42.601Z,74.57
2022-09-12T01:12:45.528Z,74.40
2022-09-12T01:14:48.293Z,74.36
2022-09-12T01:16:55.200Z,74.24
2022-09-12T01:19:09.979Z,73.92
2022-09-12T01:21:21.238Z,73.78
2022-09-12T01:23:57.891Z,73.77
2022-09-12T01:26:08.997Z,74.15
2022-09-12T01:28:32.165Z,74.44
2022-09-12T01:30:46.183Z,74.26
2022-09-12T01:33:02.663Z,74.32
2022-09-12T01:35:16.539Z,74.58
2022-09-12T01:37:29.008Z,74.58
2022-09-12T01:39:40.670Z,74.26
2022-09-12T01:41:54.457Z,74.17
2022-09-12T01:44:06.498Z,74.27
2022-09-12T01:46:17.599Z,74.35
2022-09-12T01:48:22.407Z,74.45
2022-09-12T01:50:29.138Z,74.44
2022-09-12T01:52:39.449Z,74.34
2022-09-12T01:54:47.939Z,74.56
2022-09-12T01:56:56.243Z,74.50
2022-09-12T01:59:05.441Z,74.79
2022-09-12T02:01:15.621Z,74.51
2022-09-12T02:03:21.904Z,74.68
2022-09-12T02:05:33.023Z,74.71
2022-09-12T02:07:40.583Z,74.75
2022-09-12T02:09:48.323Z,74.68
2022-09-12T02:11:54.224Z,74.96
2022-09-12T02:14:02.808Z,74.75
2022-09-12T02:16:10.649Z,74.62
2022-09-12T02:18:18.496Z,74.73
2022-09-12T02:20:44.442Z,74.29
2022-09-12T02:22:51.441Z,74.29
2022-09-12T02:24:58.566Z,74.18
2022-09-12T02:27:10.909Z,74.19
2022-09-12T02:29:13.804Z,74.52
2022-09-12T02:31:24.039Z,74.54
2022-09-12T02:33:31.483Z,74.31
2022-09-12T02:35:40.063Z,74.42
2022-09-12T02:37:57.003Z,73.84
2022-09-12T02:40:01.245Z,74.55
2022-09-12T02:42:04.982Z,74.30
2022-09-12T02:44:07.948Z,74.54
2022-09-12T02:46:17.108Z,74.90
2022-09-12T02:48:24.375Z,74.92
2022-09-12T02:50:28.914Z,74.64
2022-09-12T02:52:32.699Z,75.27
2022-09-12T02:54:35.705Z,75.28
2022-09-12T02:56:43.370Z,75.09
2022-09-12T02:58:46.405Z,75.05
2022-09-12T03:00:55.936Z,74.70
2022-09-12T03:03:19.519Z,75.17
2022-09-12T03:05:27.849Z,74.95
2022-09-12T03:07:51.678Z,74.90
2022-09-12T03:10:05.293Z,74.84
2022-09-12T03:12:22.318Z,74.85
2022-09-12T03:14:38.981Z,75.06
2022-09-12T03:16:48.883Z,75.67
2022-09-12T03:18:59.457Z,75.75
2022-09-12T03:21:07.241Z,75.20
2022-09-12T03:23:20.779Z,74.91
2022-09-12T03:25:29.538Z,74.92
2022-09-12T03:27:35.798Z,74.42
2022-09-12T03:29:41.280Z,74.39
2022-09-12T03:31:52.186Z,74.27
2022-09-12T03:33:54.924Z,74.61
2022-09-12T03:35:57.863Z,74.17
2022-09-12T03:38:00.624Z,74.43
2022-09-12T03:40:06.250Z,75.06
2022-09-12T03:42:09.037Z,75.23
2022-09-12T03:44:11.820Z,74.34
2022-09-12T03:46:15.353Z,74.64
2022-09-12T03:48:18.071Z,74.74
2022-09-12T03:50:20.851Z,75.29
2022-09-12T03:52:23.962Z,75.25
2022-09-12T03:54:26.802Z,76.79
2022-09-12T03:56:31.458Z,75.98
2022-09-12T03:58:35.679Z,75.43
2022-09-12T04:00:39.714Z,73.44
2022-09-12T04:02:42.479Z,72.17
2022-09-12T04:04:48.580Z,71.77
2022-09-12T04:06:51.356Z,71.16
2022-09-12T04:08:56.059Z,71.05
2022-09-12T04:11:03.751Z,70.38
2022-09-12T04:13:07.979Z,69.66
2022-09-12T04:15:11.467Z,70.09
2022-09-12T04:17:15.039Z,70.63
2022-09-12T04:19:18.266Z,71.60
2022-09-12T04:21:22.487Z,72.20
2022-09-12T04:23:26.773Z,72.29
2022-09-12T04:25:32.479Z,72.44
2022-09-12T04:27:35.333Z,72.72
2022-09-12T04:29:39.407Z,73.08
2022-09-12T04:31:42.985Z,73.13
2022-09-12T04:33:46.413Z,73.90
2022-09-12T04:35:50.224Z,74.46
2022-09-12T04:37:53.084Z,74.31
2022-09-12T04:39:57.765Z,74.34
2022-09-12T04:42:00.688Z,73.76
2022-09-12T04:44:05.568Z,74.44
2022-09-12T04:46:11.578Z,74.10
2022-09-12T04:48:14.959Z,74.01
2022-09-12T04:50:17.980Z,74.39
2022-09-12T04:52:20.785Z,74.85
2022-09-12T04:54:23.541Z,75.07
2022-09-12T04:56:27.923Z,75.23
2022-09-12T04:58:32.213Z,74.98
2022-09-12T05:00:35.072Z,74.71
2022-09-12T05:02:39.141Z,74.68
2022-09-12T05:04:41.975Z,74.43
2022-09-12T05:06:46.890Z,74.51
2022-09-12T05:08:49.773Z,75.36
2022-09-12T05:10:52.640Z,74.81
2022-09-12T05:12:55.406Z,75.29
2022-09-12T05:14:58.505Z,74.56
2022-09-12T05:17:02.146Z,74.97
2022-09-12T05:19:06.324Z,74.77
2022-09-12T05:21:11.643Z,74.41
2022-09-12T05:23:14.482Z,75.15
2022-09-12T05:25:17.474Z,74.85
2022-09-12T05:27:20.273Z,74.84
2022-09-12T05:29:25.113Z,75.17
2022-09-12T05:31:29.319Z,74.69
2022-09-12T05:33:33.843Z,75.24
2022-09-12T05:35:38.614Z,75.29
2022-09-12T05:37:41.411Z,74.44
2022-09-12T05:39:44.273Z,74.43
2022-09-12T05:41:47.252Z,75.19
2022-09-12T05:43:53.747Z,75.17
2022-09-12T05:46:01.877Z,75.30
2022-09-12T05:48:04.881Z,75.19
2022-09-12T05:50:10.887Z,75.23
2022-09-12T05:52:17.713Z,75.49
2022-09-12T05:54:21.186Z,75.14
2022-09-12T05:56:25.526Z,74.77
2022-09-12T05:58:28.628Z,75.33
2022-09-12T06:00:33.515Z,75.30
2022-09-12T06:02:36.606Z,75.23
2022-09-12T06:04:41.839Z,74.94
2022-09-12T06:06:46.177Z,74.69
2022-09-12T06:08:51.745Z,75.40
2022-09-12T06:11:02.266Z,74.70
2022-09-12T06:13:05.293Z,74.78
2022-09-12T06:15:08.961Z,74.44
2022-09-12T06:17:11.744Z,74.04
2022-09-12T06:19:16.187Z,73.79
2022-09-12T06:21:19.438Z,73.89
2022-09-12T06:23:22.370Z,73.16
2022-09-12T06:25:26.544Z,73.04
2022-09-12T06:27:29.323Z,72.88
2022-09-12T06:29:32.872Z,72.75
2022-09-12T06:31:37.182Z,72.67
2022-09-12T06:33:41.767Z,72.11
2022-09-12T06:35:44.526Z,71.66
2022-09-12T06:37:47.258Z,71.87
2022-09-12T06:39:50.090Z,71.45
2022-09-12T06:41:54.502Z,71.59
2022-09-12T06:44:10.825Z,71.87
2022-09-12T06:46:13.971Z,71.76
2022-09-12T06:48:16.844Z,71.43
2022-09-12T06:50:21.895Z,71.20
2022-09-12T06:52:26.039Z,71.41
2022-09-12T06:54:28.880Z,71.33
2022-09-12T06:56:32.004Z,70.74
2022-09-12T06:58:37.055Z,70.94
2022-09-12T07:00:40.023Z,71.46
2022-09-12T07:02:42.863Z,71.82
2022-09-12T07:04:45.835Z,71.86
2022-09-12T07:06:48.643Z,71.44
2022-09-12T07:08:52.239Z,71.41
2022-09-12T07:10:54.998Z,71.71
2022-09-12T07:12:58.969Z,71.48
2022-09-12T07:15:03.135Z,71.04
2022-09-12T07:17:06.021Z,71.18
2022-09-12T07:19:09.898Z,71.44
2022-09-12T07:21:14.422Z,71.65
2022-09-12T07:23:17.182Z,70.87
2022-09-12T07:25:19.992Z,70.94
2022-09-12T07:27:23.096Z,71.05
2022-09-12T07:29:36.390Z,71.30
2022-09-12T07:31:40.981Z,71.26
2022-09-12T07:33:44.805Z,71.64
2022-09-12T07:35:47.674Z,70.92
2022-09-12T07:37:50.468Z,71.29
2022-09-12T07:39:53.264Z,71.21
2022-09-12T07:41:56.018Z,71.41
2022-09-12T07:44:00.322Z,70.94
2022-09-12T07:46:03.115Z,70.71
2022-09-12T07:48:07.412Z,70.95
2022-09-12T07:50:10.747Z,70.41
2022-09-12T07:52:13.513Z,70.20
2022-09-12T07:54:16.660Z,70.42
2022-09-12T07:56:21.093Z,70.15
2022-09-12T07:58:24.001Z,69.91
2022-09-12T08:00:28.625Z,69.62
2022-09-12T08:02:31.440Z,69.37
2022-09-12T08:04:36.414Z,69.49
2022-09-12T08:06:39.175Z,69.68
2022-09-12T08:08:42.828Z,69.42
2022-09-12T08:10:45.703Z,68.77
2022-09-12T08:12:48.645Z,67.41
2022-09-12T08:14:51.460Z,67.11
2022-09-12T08:16:54.235Z,67.00
2022-09-12T08:18:57.023Z,66.76
2022-09-12T08:21:02.458Z,66.89
2022-09-12T08:23:05.157Z,66.45
2022-09-12T08:25:08.681Z,66.65
2022-09-12T08:27:11.615Z,67.20
2022-09-12T08:29:14.542Z,67.21
2022-09-12T08:31:19.374Z,67.69
2022-09-12T08:33:22.280Z,67.98
2022-09-12T08:35:25.064Z,67.67
2022-09-12T08:37:32.270Z,67.96
2022-09-12T08:39:35.171Z,67.53
2022-09-12T08:41:41.340Z,67.21
2022-09-12T08:43:58.140Z,66.82
2022-09-12T08:46:07.944Z,67.20
2022-09-12T08:48:12.864Z,66.96
2022-09-12T08:50:19.219Z,66.21
2022-09-12T08:52:28.563Z,66.03
2022-09-12T08:54:34.084Z,65.53
2022-09-12T08:56:38.600Z,65.54
2022-09-12T08:58:42.016Z,65.80
2022-09-12T09:00:52.050Z,65.05
2022-09-12T09:03:22.049Z,63.04
2022-09-12T09:05:39.373Z,63.35
2022-09-12T09:08:06.380Z,63.28
2022-09-12T09:10:23.540Z,62.71
2022-09-12T09:12:33.989Z,61.91
2022-09-12T09:15:02.245Z,61.98
2022-09-12T09:17:11.342Z,62.26
2022-09-12T09:19:19.584Z,62.14
2022-09-12T09:21:26.749Z,62.62
2022-09-12T09:23:35.874Z,61.15
2022-09-12T09:25:50.009Z,61.04
2022-09-12T09:27:59.614Z,61.40
2022-09-12T09:30:03.176Z,61.19
2022-09-12T09:32:15.250Z,61.05
2022-09-12T09:34:21.578Z,60.01
2022-09-12T09:36:34.720Z,60.01
2022-09-12T09:38:48.694Z,59.64
2022-09-12T09:41:05.209Z,60.17
2022-09-12T09:43:20.472Z,59.69
2022-09-12T09:45:25.419Z,59.77
2022-09-12T09:47:28.276Z,59.34
2022-09-12T09:49:34.543Z,58.77
2022-09-12T09:51:40.216Z,58.56
2022-09-12T09:53:49.293Z,58.78
2022-09-12T09:55:55.862Z,58.71
2022-09-12T09:57:58.643Z,58.73
2022-09-12T10:00:27.233Z,57.92
2022-09-12T10:02:30.106Z,57.46
2022-09-12T10:04:40.606Z,57.77
2022-09-12T10:06:45.293Z,55.84
2022-09-12T10:08:49.465Z,55.86
2022-09-12T10:11:02.807Z,55.92
2022-09-12T10:13:10.841Z,56.12
2022-09-12T10:15:21.928Z,56.53
2022-09-12T10:17:33.874Z,54.99
2022-09-12T10:19:39.860Z,56.17
2022-09-12T10:21:51.573Z,55.44
2022-09-12T10:24:00.995Z,53.69
2022-09-12T10:26:09.865Z,54.21
2022-09-12T10:28:27.071Z,53.17
2022-09-12T10:30:30.068Z,51.93
2022-09-12T10:32:37.587Z,51.34
2022-09-12T10:34:45.312Z,51.98
2022-09-12T10:36:48.568Z,53.50
2022-09-12T10:38:53.489Z,52.61
2022-09-12T10:40:59.808Z,51.92
2022-09-12T10:43:18.027Z,52.21
2022-09-12T10:45:24.624Z,50.82
2022-09-12T10:47:32.619Z,50.48
2022-09-12T10:49:38.077Z,49.35
2022-09-12T10:51:40.882Z,50.34
2022-09-12T10:53:46.831Z,49.86
2022-09-12T10:56:12.757Z,50.15
2022-09-12T10:58:55.954Z,49.53
2022-09-12T11:01:09.528Z,49.52
2022-09-12T11:03:17.761Z,48.96
2022-09-12T11:05:36.729Z,48.37
2022-09-12T11:07:47.022Z,48.68
2022-09-12T11:09:57.933Z,48.02
2022-09-12T11:12:09.501Z,47.79
2022-09-12T11:14:30.070Z,46.96
2022-09-12T11:16:43.108Z,46.71
2022-09-12T11:19:05.719Z,45.95
2022-09-12T11:21:23.299Z,46.49
2022-09-12T11:24:08.465Z,47.76
2022-09-12T11:26:25.884Z,48.41
2022-09-12T11:28:36.175Z,49.31
2022-09-12T11:30:52.584Z,46.26
2022-09-12T11:33:10.083Z,46.97
2022-09-12T11:35:20.599Z,47.06
2022-09-12T11:37:43.617Z,47.13
2022-09-12T11:39:54.746Z,47.54
2022-09-12T11:42:01.396Z,47.24
2022-09-12T11:44:11.179Z,46.91
2022-09-12T11:46:22.332Z,45.29
2022-09-12T11:48:39.266Z,45.17
2022-09-12T11:50:42.105Z,44.91
2022-09-12T11:52:45.050Z,45.02
2022-09-12T11:54:53.839Z,45.34
2022-09-12T11:57:05.021Z,44.58
2022-09-12T11:59:16.663Z,45.36
2022-09-12T12:01:26.019Z,46.74
2022-09-12T12:03:35.519Z,44.36
2022-09-12T12:05:44.112Z,44.54
2022-09-12T12:07:53.909Z,44.76
2022-09-12T12:09:56.897Z,44.03
2022-09-12T12:12:04.579Z,44.66
2022-09-12T12:14:13.950Z,45.81
2022-09-12T12:16:22.995Z,45.07
2022-09-12T12:18:28.113Z,45.24
2022-09-12T12:20:31.112Z,44.48
2022-09-12T12:22:33.938Z,43.92
2022-09-12T12:25:05.858Z,45.60
2022-09-12T12:27:24.841Z,46.12
2022-09-12T12:29:48.711Z,45.74
2022-09-12T12:32:26.562Z,45.29
2022-09-12T12:34:31.947Z,45.89
2022-09-12T12:36:40.337Z,45.54
2022-09-12T12:38:43.133Z,44.77
2022-09-12T12:40:46.005Z,45.14
2022-09-12T12:43:29.285Z,44.62
2022-09-12T12:46:11.857Z,44.44
2022-09-12T12:48:20.364Z,43.10
2022-09-12T12:50:26.393Z,41.75
2022-09-12T12:52:32.562Z,41.76
2022-09-12T12:54:56.115Z,42.84
2022-09-12T12:57:04.339Z,44.17
2022-09-12T12:59:18.611Z,45.20
2022-09-12T13:01:23.981Z,42.67
2022-09-12T13:03:31.534Z,42.71
2022-09-12T13:05:41.549Z,43.28
2022-09-12T13:07:45.376Z,40.79
2022-09-12T13:09:54.450Z,41.01
2022-09-12T13:12:02.363Z,42.74
2022-09-12T13:14:07.114Z,42.43
2022-09-12T13:16:11.322Z,43.37
2022-09-12T13:18:18.152Z,41.69
2022-09-12T13:20:29.994Z,41.43
2022-09-12T13:22:41.887Z,41.27
2022-09-12T13:24:47.447Z,41.01
2022-09-12T13:26:50.759Z,41.54
2022-09-12T13:29:12.706Z,41.44
2022-09-12T13:31:25.461Z,40.68
2022-09-12T13:33:35.953Z,42.55
2022-09-12T13:35:51.880Z,41.32
2022-09-12T13:38:06.305Z,43.07
2022-09-12T13:40:24.113Z,43.48
2022-09-12T13:42:41.450Z,41.81
2022-09-12T13:44:47.566Z,41.45
2022-09-12T13:46:51.797Z,41.63
2022-09-12T13:48:55.224Z,42.36
2022-09-12T13:51:02.975Z,41.63
2022-09-12T13:53:08.358Z,41.05
2022-09-12T13:55:24.989Z,39.82
2022-09-12T13:57:30.930Z,40.84
2022-09-12T13:59:39.907Z,38.60
2022-09-12T14:01:44.685Z,38.13
2022-09-12T14:04:10.505Z,39.30
2022-09-12T14:06:16.499Z,40.27
2022-09-12T14:08:19.684Z,39.94
2022-09-12T14:10:28.205Z,40.47
2022-09-12T14:12:34.756Z,40.97
2022-09-12T14:14:43.827Z,41.75
2022-09-12T14:16:47.080Z,40.22
2022-09-12T14:18:51.752Z,39.95
2022-09-12T14:20:57.141Z,40.81
2022-09-12T14:23:04.221Z,40.86
2022-09-12T14:25:10.835Z,40.06
2022-09-12T14:27:16.105Z,39.60
2022-09-12T14:29:19.246Z,39.29
2022-09-12T14:31:25.002Z,40.17
2022-09-12T14:33:27.921Z,39.96
2022-09-12T14:35:32.458Z,40.62
2022-09-12T14:37:35.498Z,40.66
2022-09-12T14:39:42.525Z,40.58
2022-09-12T14:41:46.152Z,39.12
2022-09-12T14:43:53.925Z,39.62
2022-09-12T14:46:00.319Z,40.05
2022-09-12T14:48:04.275Z,41.19
2022-09-12T14:50:16.941Z,40.12
2022-09-12T14:52:27.665Z,40.86
2022-09-12T14:54:44.340Z,38.85
2022-09-12T14:56:56.040Z,38.69
2022-09-12T14:59:27.555Z,38.40
2022-09-12T15:01:30.457Z,39.22
2022-09-12T15:03:35.535Z,39.51
2022-09-12T15:05:50.325Z,39.35
2022-09-12T15:07:55.217Z,39.85
2022-09-12T15:10:01.740Z,39.81
2022-09-12T15:12:04.603Z,38.52
2022-09-12T15:14:08.258Z,39.21
2022-09-12T15:16:12.869Z,39.46
2022-09-12T15:18:16.236Z,39.42
2022-09-12T15:20:19.140Z,39.55
2022-09-12T15:22:24.245Z,39.14
2022-09-12T15:24:27.007Z,39.16
2022-09-12T15:26:31.677Z,39.66
2022-09-12T15:28:35.465Z,39.87
2022-09-12T15:30:38.350Z,39.05
2022-09-12T15:32:43.352Z,39.57
2022-09-12T15:34:46.193Z,38.96
2022-09-12T15:36:49.402Z,38.87
2022-09-12T15:38:52.837Z,38.83
2022-09-12T15:40:57.243Z,39.79
2022-09-12T15:43:01.271Z,39.98
2022-09-12T15:45:17.368Z,39.79
2022-09-12T15:47:20.176Z,39.91
2022-09-12T15:49:23.108Z,39.46
2022-09-12T15:51:26.065Z,39.04
2022-09-12T15:53:29.349Z,39.22
2022-09-12T15:55:33.135Z,38.99
2022-09-12T15:57:35.998Z,39.63
2022-09-12T15:59:40.161Z,39.01
2022-09-12T16:01:42.990Z,39.69
2022-09-12T16:03:48.033Z,39.43
2022-09-12T16:05:51.821Z,38.75
2022-09-12T16:07:56.491Z,38.33
2022-09-12T16:09:59.656Z,38.11
2022-09-12T16:12:03.337Z,38.28
2022-09-12T16:14:06.451Z,38.74
2022-09-12T16:16:11.521Z,38.70
2022-09-12T16:18:14.363Z,38.35
2022-09-12T16:20:17.285Z,39.33
2022-09-12T16:22:20.056Z,38.84
2022-09-12T16:24:22.992Z,39.45
2022-09-12T16:26:25.778Z,38.68
2022-09-12T16:28:29.442Z,38.67
2022-09-12T16:30:32.364Z,38.78
2022-09-12T16:32:37.030Z,39.06
2022-09-12T16:34:39.794Z,39.44
2022-09-12T16:36:45.169Z,39.25
2022-09-12T16:38:49.728Z,39.85
2022-09-12T16:40:52.543Z,40.00
2022-09-12T16:42:55.468Z,40.34
2022-09-12T16:44:58.262Z,39.78
2022-09-12T16:47:01.049Z,39.12
2022-09-12T16:49:05.894Z,39.95
2022-09-12T16:51:08.731Z,40.61
2022-09-12T16:53:14.468Z,40.73
2022-09-12T16:55:17.275Z,40.66
2022-09-12T16:57:20.070Z,40.72
2022-09-12T16:59:22.921Z,41.11
2022-09-12T17:01:27.016Z,41.19
2022-09-12T17:03:30.217Z,41.65
2022-09-12T17:05:34.496Z,42.53
2022-09-12T17:07:37.303Z,41.97
2022-09-12T17:09:40.031Z,42.40
2022-09-12T17:11:43.136Z,42.05
2022-09-12T17:14:04.009Z,41.95
2022-09-12T17:16:10.346Z,42.47
2022-09-12T17:18:13.286Z,42.39
2022-09-12T17:20:16.077Z,43.42
2022-09-12T17:22:22.738Z,43.62
2022-09-12T17:24:26.680Z,43.44
2022-09-12T17:26:29.444Z,44.01
2022-09-12T17:28:32.584Z,45.39
2022-09-12T17:30:36.167Z,45.84
2022-09-12T17:32:39.206Z,45.90
2022-09-12T17:34:42.067Z,45.62
2022-09-12T17:36:45.342Z,44.82
2022-09-12T17:38:49.534Z,44.84
2022-09-12T17:40:59.495Z,44.89
2022-09-12T17:43:02.984Z,45.09
2022-09-12T17:45:06.946Z,45.05
2022-09-12T17:47:12.730Z,44.77
2022-09-12T17:49:17.093Z,45.19
2022-09-12T17:51:19.936Z,45.47
2022-09-12T17:53:22.789Z,47.11
2022-09-12T17:55:27.429Z,46.68
2022-09-12T17:57:30.358Z,46.88
2022-09-12T17:59:33.195Z,46.91
2022-09-12T18:01:54.272Z,47.01
2022-09-12T18:03:59.171Z,47.17
2022-09-12T18:06:02.218Z,47.07
2022-09-12T18:08:05.106Z,47.35
2022-09-12T18:10:08.712Z,47.47
2022-09-12T18:12:13.105Z,47.62
2022-09-12T18:14:17.230Z,47.89
2022-09-12T18:16:20.200Z,48.00
2022-09-12T18:18:22.993Z,47.79
2022-09-12T18:20:25.810Z,48.16
2022-09-12T18:22:28.609Z,48.70
2022-09-12T18:24:31.352Z,48.68
2022-09-12T18:26:34.898Z,48.86
2022-09-12T18:28:42.309Z,48.99
2022-09-12T18:30:45.453Z,49.24
2022-09-12T18:32:48.495Z,49.28
2022-09-12T18:34:51.450Z,49.85
2022-09-12T18:36:54.832Z,50.01
2022-09-12T18:38:59.049Z,49.89
2022-09-12T18:41:05.921Z,50.31
2022-09-12T18:43:08.979Z,50.56
2022-09-12T18:45:13.120Z,50.42
2022-09-12T18:47:15.946Z,50.98
2022-09-12T18:49:18.735Z,51.01
2022-09-12T18:51:25.310Z,50.79
2022-09-12T18:53:28.157Z,50.60
2022-09-12T18:55:33.114Z,50.24
2022-09-12T18:57:36.033Z,50.79
2022-09-12T18:59:38.742Z,50.95
2022-09-12T19:01:43.783Z,51.18
2022-09-12T19:03:47.383Z,51.54
2022-09-12T19:05:50.368Z,51.25
2022-09-12T19:07:53.196Z,51.44
2022-09-12T19:09:58.837Z,51.56
2022-09-12T19:12:01.600Z,51.52
2022-09-12T19:14:05.331Z,51.79
2022-09-12T19:16:10.208Z,51.38
2022-09-12T19:18:14.613Z,51.38
2022-09-12T19:20:17.418Z,51.83
2022-09-12T19:22:20.263Z,52.24
2022-09-12T19:24:23.578Z,52.68
2022-09-12T19:26:27.236Z,52.61
2022-09-12T19:28:30.793Z,52.38
2022-09-12T19:30:33.664Z,52.46
2022-09-12T19:32:37.629Z,52.33
2022-09-12T19:34:41.782Z,52.22
2022-09-12T19:36:46.260Z,51.78
2022-09-12T19:38:49.767Z,52.69
2022-09-12T19:40:59.597Z,52.57
2022-09-12T19:43:05.174Z,53.69
2022-09-12T19:45:08.695Z,53.52
2022-09-12T19:47:14.027Z,53.00
2022-09-12T19:49:16.814Z,52.47
2022-09-12T19:51:23.781Z,52.32
2022-09-12T19:53:27.187Z,53.06
2022-09-12T19:55:30.088Z,52.78
2022-09-12T19:57:32.942Z,53.27
2022-09-12T19:59:35.712Z,53.85
2022-09-12T20:01:38.681Z,53.27
2022-09-12T20:03:42.336Z,53.49
2022-09-12T20:05:45.139Z,53.54
2022-09-12T20:07:50.281Z,53.69
2022-09-12T20:09:53.298Z,53.78
2022-09-12T20:11:56.074Z,53.45
2022-09-12T20:13:58.879Z,53.51
2022-09-12T20:16:07.306Z,53.58
2022-09-12T20:18:10.154Z,53.83
2022-09-12T20:20:13.109Z,54.39
2022-09-12T20:22:15.858Z,54.03
2022-09-12T20:24:19.990Z,54.23
2022-09-12T20:26:24.833Z,54.11
2022-09-12T20:28:27.566Z,54.33
2022-09-12T20:30:30.766Z,54.65
2022-09-12T20:32:33.512Z,55.07
2022-09-12T20:34:36.349Z,55.10
2022-09-12T20:36:39.162Z,55.25
2022-09-12T20:38:42.642Z,55.42
2022-09-12T20:40:50.284Z,56.04
2022-09-12T20:42:52.980Z,56.05
2022-09-12T20:44:55.971Z,56.12
2022-09-12T20:46:59.521Z,55.92
2022-09-12T20:49:02.440Z,56.48
2022-09-12T20:51:05.616Z,57.05
2022-09-12T20:53:08.594Z,57.27
2022-09-12T20:55:11.716Z,56.88
2022-09-12T20:57:15.864Z,56.74
2022-09-12T20:59:18.826Z,57.08
2022-09-12T21:01:21.701Z,57.73
2022-09-12T21:03:25.331Z,57.71
2022-09-12T21:05:30.801Z,58.14
2022-09-12T21:07:33.586Z,58.53
2022-09-12T21:09:36.580Z,58.70
2022-09-12T21:11:39.370Z,59.05
2022-09-12T21:13:43.494Z,59.71
2022-09-12T21:15:46.311Z,59.77
2022-09-12T21:17:49.071Z,60.36
2022-09-12T21:19:51.800Z,60.44
2022-09-12T21:21:54.566Z,61.00
2022-09-12T21:23:59.420Z,61.82
2022-09-12T21:26:02.596Z,61.70
2022-09-12T21:28:05.388Z,61.21
2022-09-12T21:30:10.335Z,61.70
2022-09-12T21:32:14.411Z,61.86
2022-09-12T21:34:17.338Z,61.99
2022-09-12T21:36:20.160Z,61.87
2022-09-12T21:38:23.107Z,61.94
2022-09-12T21:40:25.836Z,62.18
2022-09-12T21:42:28.574Z,62.13
2022-09-12T21:44:31.400Z,62.20
2022-09-12T21:46:35.747Z,62.32
2022-09-12T21:48:38.642Z,62.79
2022-09-12T21:50:41.371Z,63.17
2022-09-12T21:52:44.362Z,62.89
2022-09-12T21:54:47.121Z,63.54
2022-09-12T21:56:49.844Z,63.10
2022-09-12T21:58:52.775Z,62.87
2022-09-12T22:00:55.620Z,62.95
2022-09-12T22:03:00.057Z,63.14
2022-09-12T22:05:02.950Z,63.19
2022-09-12T22:07:06.290Z,63.27
2022-09-12T22:09:09.112Z,63.41
2022-09-12T22:11:12.782Z,63.70
2022-09-12T22:13:15.538Z,63.64
2022-09-12T22:15:39.447Z,64.29
2022-09-12T22:17:41.847Z,64.50
2022-09-12T22:19:45.971Z,64.67
2022-09-12T22:22:02.688Z,64.78
2022-09-12T22:24:19.392Z,64.98
2022-09-12T22:26:22.230Z,65.48
2022-09-12T22:28:25.331Z,65.75
2022-09-12T22:30:28.576Z,66.06
2022-09-12T22:32:31.399Z,66.08
2022-09-12T22:34:34.291Z,66.21
2022-09-12T22:36:39.230Z,66.29
2022-09-12T22:38:42.102Z,66.22
2022-09-12T22:40:44.844Z,65.98
2022-09-12T22:42:47.609Z,65.43
2022-09-12T22:44:50.380Z,65.36
2022-09-12T22:46:53.386Z,66.01
2022-09-12T22:48:56.577Z,67.24
2022-09-12T22:50:59.416Z,67.16
2022-09-12T22:53:03.522Z,67.56
2022-09-12T22:55:06.654Z,67.37
2022-09-12T22:57:09.595Z,67.24
2022-09-12T22:59:12.396Z,67.15
2022-09-12T23:01:15.781Z,67.25
2022-09-12T23:03:19.199Z,67.43
2022-09-12T23:05:22.401Z,67.03
2022-09-12T23:07:25.682Z,67.20
2022-09-12T23:09:33.334Z,66.90
2022-09-12T23:11:38.212Z,66.91
2022-09-12T23:13:43.863Z,66.54
2022-09-12T23:15:46.635Z,66.13
2022-09-12T23:17:49.439Z,65.89
2022-09-12T23:19:52.512Z,66.17
2022-09-12T23:21:55.464Z,66.39
2022-09-12T23:23:58.441Z,66.49
2022-09-12T23:26:07.825Z,65.82
2022-09-12T23:28:13.265Z,66.48
2022-09-12T23:30:21.417Z,65.59
2022-09-12T23:32:24.623Z,65.94
2022-09-12T23:34:27.381Z,65.76
2022-09-12T23:36:30.513Z,66.18
2022-09-12T23:38:34.217Z,66.06
2022-09-12T23:40:36.977Z,66.37
2022-09-12T23:42:41.120Z,66.50
2022-09-12T23:44:44.137Z,66.52
2022-09-12T23:46:46.900Z,66.63
2022-09-12T23:48:50.251Z,67.54
2022-09-12T23:50:53.294Z,67.45
2022-09-12T23:52:56.044Z,67.40
2022-09-12T23:54:58.816Z,67.25
2022-09-12T23:57:01.567Z,67.57
2022-09-12T23:59:05.864Z,67.34
